sensor_id;sensor_type;location;lat;lon;timestamp;P1;durP1;ratioP1;P2;durP2;ratioP2
6757;SDS011;3416;53.074;8.822;2023-05-02T09:23:11;11.13;;;3.20;;
6757;SDS011;3416;53.074;8.822;2023-05-02T09:25:38;7.38;;;2.90;;
6757;SDS011;3416;53.074;8.822;2023-05-02T09:28:05;6.47;;;3.53;;
6757;SDS011;3416;53.074;8.822;2023-05-02T09:30:32;11.02;;;2.90;;
6757;SDS011;3416;53.074;8.822;2023-05-02T09:32:59;6.32;;;2.85;;
6757;SDS011;3416;53.074;8.822;2023-05-02T09:35:26;4.07;;;2.50;;
6757;SDS011;3416;53.074;8.822;2023-05-02T09:37:54;6.53;;;2.50;;
6757;SDS011;3416;53.074;8.822;2023-05-02T09:40:23;7.03;;;2.88;;
6757;SDS011;3416;53.074;8.822;2023-05-02T09:42:51;6.25;;;3.00;;
6757;SDS011;3416;53.074;8.822;2023-05-02T09:45:19;6.90;;;2.42;;
6757;SDS011;3416;53.074;8.822;2023-05-02T09:47:47;7.72;;;2.90;;
6757;SDS011;3416;53.074;8.822;2023-05-02T09:50:32;5.50;;;2.53;;
6757;SDS011;3416;53.074;8.822;2023-05-02T09:53:02;3.70;;;2.17;;
6757;SDS011;3416;53.074;8.822;2023-05-02T09:55:31;3.67;;;1.92;;
6757;SDS011;3416;53.074;8.822;2023-05-02T09:57:59;5.63;;;2.03;;
6757;SDS011;3416;53.074;8.822;2023-05-02T10:00:39;5.63;;;2.80;;
6757;SDS011;3416;53.074;8.822;2023-05-02T10:03:07;5.40;;;3.05;;
6757;SDS011;3416;53.074;8.822;2023-05-02T10:05:35;6.55;;;2.50;;
6757;SDS011;3416;53.074;8.822;2023-05-02T10:08:03;2.85;;;1.85;;
6757;SDS011;3416;53.074;8.822;2023-05-02T10:10:34;5.07;;;1.98;;
6757;SDS011;3416;53.074;8.822;2023-05-02T10:13:03;5.22;;;2.15;;
6757;SDS011;3416;53.074;8.822;2023-05-02T10:15:31;4.38;;;2.15;;
6757;SDS011;3416;53.074;8.822;2023-05-02T10:17:59;5.72;;;2.70;;
6757;SDS011;3416;53.074;8.822;2023-05-02T10:20:34;5.80;;;2.55;;
6757;SDS011;3416;53.074;8.822;2023-05-02T10:23:02;4.50;;;1.95;;
6757;SDS011;3416;53.074;8.822;2023-05-02T10:25:31;5.63;;;2.17;;
6757;SDS011;3416;53.074;8.822;2023-05-02T10:28:00;3.65;;;2.15;;
6757;SDS011;3416;53.074;8.822;2023-05-02T10:30:28;9.65;;;3.13;;
6757;SDS011;3416;53.074;8.822;2023-05-02T10:32:56;5.43;;;2.10;;
6757;SDS011;3416;53.074;8.822;2023-05-02T10:35:25;4.47;;;2.90;;
6757;SDS011;3416;53.074;8.822;2023-05-02T10:37:52;5.18;;;3.13;;
6757;SDS011;3416;53.074;8.822;2023-05-02T10:40:20;3.65;;;2.20;;
6757;SDS011;3416;53.074;8.822;2023-05-02T10:42:48;3.55;;;2.55;;
6757;SDS011;3416;53.074;8.822;2023-05-02T10:45:32;4.53;;;1.92;;
6757;SDS011;3416;53.074;8.822;2023-05-02T10:50:47;8.07;;;2.33;;
6757;SDS011;3416;53.074;8.822;2023-05-02T10:53:25;8.18;;;2.58;;
6757;SDS011;3416;53.074;8.822;2023-05-02T10:58:52;3.10;;;1.70;;
6757;SDS011;3416;53.074;8.822;2023-05-02T11:01:39;2.28;;;1.70;;
6757;SDS011;3416;53.074;8.822;2023-05-02T11:04:07;3.95;;;1.83;;
6757;SDS011;3416;53.074;8.822;2023-05-02T11:06:35;5.85;;;2.05;;
6757;SDS011;3416;53.074;8.822;2023-05-02T11:09:30;6.35;;;2.05;;
6757;SDS011;3416;53.074;8.822;2023-05-02T11:11:58;3.97;;;2.10;;
6757;SDS011;3416;53.074;8.822;2023-05-02T11:14:41;5.07;;;2.25;;
6757;SDS011;3416;53.074;8.822;2023-05-02T11:17:09;4.22;;;1.60;;
6757;SDS011;3416;53.074;8.822;2023-05-02T11:22:45;4.10;;;2.38;;
6757;SDS011;3416;53.074;8.822;2023-05-02T11:27:59;8.75;;;2.03;;
6757;SDS011;3416;53.074;8.822;2023-05-02T11:30:36;10.13;;;2.40;;
6757;SDS011;3416;53.074;8.822;2023-05-02T11:33:11;5.97;;;2.22;;
6757;SDS011;3416;53.074;8.822;2023-05-02T11:35:43;8.05;;;2.10;;
6757;SDS011;3416;53.074;8.822;2023-05-02T11:38:11;8.77;;;2.75;;
6757;SDS011;3416;53.074;8.822;2023-05-02T11:40:46;5.38;;;2.33;;
6757;SDS011;3416;53.074;8.822;2023-05-02T11:43:18;5.93;;;3.03;;
6757;SDS011;3416;53.074;8.822;2023-05-02T11:45:46;9.15;;;2.03;;
6757;SDS011;3416;53.074;8.822;2023-05-02T11:48:14;7.00;;;3.28;;
6757;SDS011;3416;53.074;8.822;2023-05-02T11:50:44;6.68;;;2.15;;
6757;SDS011;3416;53.074;8.822;2023-05-02T11:53:12;12.25;;;2.22;;
6757;SDS011;3416;53.074;8.822;2023-05-02T11:55:46;3.67;;;2.00;;
6757;SDS011;3416;53.074;8.822;2023-05-02T11:58:14;3.45;;;2.25;;
6757;SDS011;3416;53.074;8.822;2023-05-02T12:00:42;6.35;;;2.15;;
6757;SDS011;3416;53.074;8.822;2023-05-02T12:03:18;6.68;;;1.88;;
6757;SDS011;3416;53.074;8.822;2023-05-02T12:05:46;2.92;;;1.88;;
6757;SDS011;3416;53.074;8.822;2023-05-02T12:08:17;5.97;;;2.80;;
6757;SDS011;3416;53.074;8.822;2023-05-02T12:10:46;5.55;;;1.75;;
6757;SDS011;3416;53.074;8.822;2023-05-02T12:13:14;9.80;;;2.60;;
6757;SDS011;3416;53.074;8.822;2023-05-02T12:15:41;4.63;;;1.80;;
6757;SDS011;3416;53.074;8.822;2023-05-02T12:18:08;5.68;;;1.80;;
6757;SDS011;3416;53.074;8.822;2023-05-02T12:20:35;6.07;;;2.55;;
6757;SDS011;3416;53.074;8.822;2023-05-02T12:23:03;4.35;;;1.95;;
6757;SDS011;3416;53.074;8.822;2023-05-02T12:25:35;5.93;;;1.92;;
6757;SDS011;3416;53.074;8.822;2023-05-02T12:28:04;6.05;;;3.28;;
6757;SDS011;3416;53.074;8.822;2023-05-02T12:30:33;10.80;;;2.63;;
6757;SDS011;3416;53.074;8.822;2023-05-02T12:33:02;8.60;;;2.20;;
6757;SDS011;3416;53.074;8.822;2023-05-02T12:35:30;7.10;;;2.90;;
6757;SDS011;3416;53.074;8.822;2023-05-02T12:38:08;8.52;;;2.63;;
6757;SDS011;3416;53.074;8.822;2023-05-02T12:40:37;4.78;;;2.33;;
6757;SDS011;3416;53.074;8.822;2023-05-02T12:43:06;6.72;;;2.85;;
6757;SDS011;3416;53.074;8.822;2023-05-02T12:45:35;7.30;;;2.40;;
6757;SDS011;3416;53.074;8.822;2023-05-02T12:48:16;3.95;;;1.38;;
6757;SDS011;3416;53.074;8.822;2023-05-02T12:50:47;6.55;;;2.17;;
6757;SDS011;3416;53.074;8.822;2023-05-02T12:53:15;13.38;;;3.05;;
6757;SDS011;3416;53.074;8.822;2023-05-02T12:55:42;6.60;;;3.10;;
6757;SDS011;3416;53.074;8.822;2023-05-02T12:58:12;5.18;;;1.73;;
6757;SDS011;3416;53.074;8.822;2023-05-02T13:00:39;4.57;;;2.15;;
6757;SDS011;3416;53.074;8.822;2023-05-02T13:03:08;3.95;;;1.90;;
6757;SDS011;3416;53.074;8.822;2023-05-02T13:05:35;4.97;;;2.70;;
6757;SDS011;3416;53.074;8.822;2023-05-02T13:08:02;11.80;;;2.33;;
6757;SDS011;3416;53.074;8.822;2023-05-02T13:10:30;3.78;;;1.65;;
6757;SDS011;3416;53.074;8.822;2023-05-02T13:12:58;5.93;;;2.20;;
6757;SDS011;3416;53.074;8.822;2023-05-02T13:15:27;8.48;;;1.85;;
6757;SDS011;3416;53.074;8.822;2023-05-02T13:17:54;2.83;;;2.22;;
6757;SDS011;3416;53.074;8.822;2023-05-02T13:20:21;2.38;;;1.77;;
6757;SDS011;3416;53.074;8.822;2023-05-02T13:22:47;7.05;;;1.80;;
6757;SDS011;3416;53.074;8.822;2023-05-02T13:25:15;9.30;;;2.05;;
6757;SDS011;3416;53.074;8.822;2023-05-02T13:27:42;3.10;;;1.70;;
6757;SDS011;3416;53.074;8.822;2023-05-02T13:30:10;5.13;;;2.13;;
6757;SDS011;3416;53.074;8.822;2023-05-02T13:32:39;4.40;;;2.17;;
6757;SDS011;3416;53.074;8.822;2023-05-02T13:35:06;4.47;;;1.52;;
6757;SDS011;3416;53.074;8.822;2023-05-02T13:37:36;7.20;;;2.20;;
6757;SDS011;3416;53.074;8.822;2023-05-02T13:40:03;6.57;;;2.20;;
6757;SDS011;3416;53.074;8.822;2023-05-02T13:42:31;5.38;;;1.85;;
6757;SDS011;3416;53.074;8.822;2023-05-02T13:44:57;3.55;;;1.88;;
6757;SDS011;3416;53.074;8.822;2023-05-02T13:47:27;7.18;;;2.45;;
6757;SDS011;3416;53.074;8.822;2023-05-02T13:49:55;4.80;;;1.77;;
6757;SDS011;3416;53.074;8.822;2023-05-02T13:52:23;3.58;;;1.75;;
6757;SDS011;3416;53.074;8.822;2023-05-02T13:54:50;3.42;;;2.08;;
6757;SDS011;3416;53.074;8.822;2023-05-02T13:57:19;2.85;;;1.50;;
6757;SDS011;3416;53.074;8.822;2023-05-02T13:59:49;2.45;;;1.90;;
6757;SDS011;3416;53.074;8.822;2023-05-02T14:02:16;7.63;;;2.10;;
6757;SDS011;3416;53.074;8.822;2023-05-02T14:04:43;9.82;;;2.28;;
6757;SDS011;3416;53.074;8.822;2023-05-02T14:07:11;2.95;;;1.80;;
6757;SDS011;3416;53.074;8.822;2023-05-02T14:09:38;5.53;;;2.20;;
6757;SDS011;3416;53.074;8.822;2023-05-02T14:12:07;4.63;;;2.50;;
6757;SDS011;3416;53.074;8.822;2023-05-02T14:14:34;8.30;;;3.33;;
6757;SDS011;3416;53.074;8.822;2023-05-02T14:17:02;7.45;;;2.00;;
6757;SDS011;3416;53.074;8.822;2023-05-02T14:19:29;5.82;;;1.50;;
6757;SDS011;3416;53.074;8.822;2023-05-02T14:21:56;5.85;;;1.83;;
6757;SDS011;3416;53.074;8.822;2023-05-02T14:24:24;7.72;;;2.17;;
6757;SDS011;3416;53.074;8.822;2023-05-02T14:26:51;6.35;;;1.85;;
6757;SDS011;3416;53.074;8.822;2023-05-02T14:29:18;4.40;;;1.80;;
6757;SDS011;3416;53.074;8.822;2023-05-02T14:31:45;5.65;;;1.75;;
6757;SDS011;3416;53.074;8.822;2023-05-02T14:34:12;3.30;;;2.35;;
6757;SDS011;3416;53.074;8.822;2023-05-02T14:36:39;9.52;;;2.95;;
6757;SDS011;3416;53.074;8.822;2023-05-02T14:39:06;4.85;;;1.70;;
6757;SDS011;3416;53.074;8.822;2023-05-02T14:41:34;2.90;;;1.90;;
6757;SDS011;3416;53.074;8.822;2023-05-02T14:44:02;6.75;;;2.20;;
6757;SDS011;3416;53.074;8.822;2023-05-02T14:46:29;16.63;;;2.40;;
6757;SDS011;3416;53.074;8.822;2023-05-02T14:48:56;2.63;;;1.92;;
6757;SDS011;3416;53.074;8.822;2023-05-02T14:51:23;6.10;;;1.65;;
6757;SDS011;3416;53.074;8.822;2023-05-02T14:53:50;4.35;;;1.83;;
6757;SDS011;3416;53.074;8.822;2023-05-02T14:56:18;2.42;;;1.60;;
6757;SDS011;3416;53.074;8.822;2023-05-02T14:58:47;4.50;;;2.05;;
6757;SDS011;3416;53.074;8.822;2023-05-02T15:01:14;8.55;;;2.28;;
6757;SDS011;3416;53.074;8.822;2023-05-02T15:03:42;5.13;;;1.60;;
6757;SDS011;3416;53.074;8.822;2023-05-02T15:06:09;5.47;;;1.70;;
6757;SDS011;3416;53.074;8.822;2023-05-02T15:08:36;4.63;;;2.45;;
6757;SDS011;3416;53.074;8.822;2023-05-02T15:11:04;10.80;;;1.98;;
6757;SDS011;3416;53.074;8.822;2023-05-02T15:13:32;3.33;;;1.63;;
6757;SDS011;3416;53.074;8.822;2023-05-02T15:16:00;5.43;;;1.60;;
6757;SDS011;3416;53.074;8.822;2023-05-02T15:18:27;8.55;;;1.70;;
6757;SDS011;3416;53.074;8.822;2023-05-02T15:20:54;7.47;;;2.30;;
6757;SDS011;3416;53.074;8.822;2023-05-02T15:23:21;4.28;;;1.80;;
6757;SDS011;3416;53.074;8.822;2023-05-02T15:25:49;7.72;;;1.33;;
6757;SDS011;3416;53.074;8.822;2023-05-02T15:28:16;3.83;;;1.70;;
6757;SDS011;3416;53.074;8.822;2023-05-02T15:30:42;2.05;;;1.52;;
6757;SDS011;3416;53.074;8.822;2023-05-02T15:33:11;4.30;;;1.73;;
6757;SDS011;3416;53.074;8.822;2023-05-02T15:35:38;7.88;;;2.80;;
6757;SDS011;3416;53.074;8.822;2023-05-02T15:38:05;3.63;;;1.92;;
6757;SDS011;3416;53.074;8.822;2023-05-02T15:40:33;3.58;;;1.85;;
6757;SDS011;3416;53.074;8.822;2023-05-02T15:43:00;6.47;;;2.38;;
6757;SDS011;3416;53.074;8.822;2023-05-02T15:45:27;2.70;;;1.85;;
6757;SDS011;3416;53.074;8.822;2023-05-02T15:47:58;5.53;;;2.33;;
6757;SDS011;3416;53.074;8.822;2023-05-02T15:50:26;7.60;;;1.80;;
6757;SDS011;3416;53.074;8.822;2023-05-02T15:52:53;5.57;;;2.53;;
6757;SDS011;3416;53.074;8.822;2023-05-02T15:55:20;8.30;;;2.35;;
6757;SDS011;3416;53.074;8.822;2023-05-02T15:57:47;6.78;;;2.33;;
6757;SDS011;3416;53.074;8.822;2023-05-02T16:00:16;4.07;;;2.00;;
6757;SDS011;3416;53.074;8.822;2023-05-02T16:02:44;4.65;;;1.50;;
6757;SDS011;3416;53.074;8.822;2023-05-02T16:05:11;5.47;;;1.80;;
6757;SDS011;3416;53.074;8.822;2023-05-02T16:07:40;7.22;;;3.55;;
6757;SDS011;3416;53.074;8.822;2023-05-02T16:10:07;13.70;;;2.10;;
6757;SDS011;3416;53.074;8.822;2023-05-02T16:12:35;4.05;;;1.80;;
6757;SDS011;3416;53.074;8.822;2023-05-02T16:15:02;6.55;;;2.20;;
6757;SDS011;3416;53.074;8.822;2023-05-02T16:17:30;9.30;;;2.08;;
6757;SDS011;3416;53.074;8.822;2023-05-02T16:19:57;2.55;;;1.85;;
6757;SDS011;3416;53.074;8.822;2023-05-02T16:22:24;10.00;;;2.65;;
6757;SDS011;3416;53.074;8.822;2023-05-02T16:24:53;4.38;;;1.90;;
6757;SDS011;3416;53.074;8.822;2023-05-02T16:27:21;3.38;;;1.77;;
6757;SDS011;3416;53.074;8.822;2023-05-02T16:29:49;8.23;;;3.90;;
6757;SDS011;3416;53.074;8.822;2023-05-02T16:32:16;7.55;;;3.55;;
6757;SDS011;3416;53.074;8.822;2023-05-02T16:34:43;3.78;;;2.10;;
6757;SDS011;3416;53.074;8.822;2023-05-02T16:37:10;4.18;;;2.33;;
6757;SDS011;3416;53.074;8.822;2023-05-02T16:39:37;6.22;;;2.30;;
6757;SDS011;3416;53.074;8.822;2023-05-02T16:42:06;4.97;;;2.15;;
6757;SDS011;3416;53.074;8.822;2023-05-02T16:44:33;5.35;;;2.15;;
6757;SDS011;3416;53.074;8.822;2023-05-02T16:47:00;12.93;;;2.10;;
6757;SDS011;3416;53.074;8.822;2023-05-02T16:49:27;6.03;;;2.47;;
6757;SDS011;3416;53.074;8.822;2023-05-02T16:51:54;3.08;;;1.73;;
6757;SDS011;3416;53.074;8.822;2023-05-02T16:54:21;4.60;;;1.83;;
6757;SDS011;3416;53.074;8.822;2023-05-02T16:56:52;8.27;;;2.17;;
6757;SDS011;3416;53.074;8.822;2023-05-02T16:59:21;6.38;;;2.00;;
6757;SDS011;3416;53.074;8.822;2023-05-02T17:01:49;6.03;;;3.22;;
6757;SDS011;3416;53.074;8.822;2023-05-02T17:04:15;6.00;;;2.28;;
6757;SDS011;3416;53.074;8.822;2023-05-02T17:06:45;10.70;;;2.90;;
6757;SDS011;3416;53.074;8.822;2023-05-02T17:09:11;4.10;;;1.70;;
6757;SDS011;3416;53.074;8.822;2023-05-02T17:11:39;2.67;;;1.63;;
6757;SDS011;3416;53.074;8.822;2023-05-02T17:14:06;4.15;;;2.08;;
6757;SDS011;3416;53.074;8.822;2023-05-02T17:16:35;5.32;;;1.95;;
6757;SDS011;3416;53.074;8.822;2023-05-02T17:19:02;1.70;;;1.40;;
6757;SDS011;3416;53.074;8.822;2023-05-02T17:21:30;4.60;;;2.03;;
6757;SDS011;3416;53.074;8.822;2023-05-02T17:23:57;2.92;;;1.95;;
6757;SDS011;3416;53.074;8.822;2023-05-02T17:26:24;2.47;;;1.58;;
6757;SDS011;3416;53.074;8.822;2023-05-02T17:28:52;7.00;;;1.80;;
6757;SDS011;3416;53.074;8.822;2023-05-02T17:31:18;3.50;;;2.33;;
6757;SDS011;3416;53.074;8.822;2023-05-02T17:33:48;3.58;;;2.13;;
6757;SDS011;3416;53.074;8.822;2023-05-02T17:36:16;3.08;;;1.55;;
6757;SDS011;3416;53.074;8.822;2023-05-02T17:38:44;6.55;;;1.98;;
6757;SDS011;3416;53.074;8.822;2023-05-02T17:41:11;3.08;;;1.50;;
6757;SDS011;3416;53.074;8.822;2023-05-02T17:43:41;4.40;;;2.28;;
6757;SDS011;3416;53.074;8.822;2023-05-02T17:46:08;3.90;;;1.60;;
6757;SDS011;3416;53.074;8.822;2023-05-02T17:48:35;3.47;;;2.00;;
6757;SDS011;3416;53.074;8.822;2023-05-02T17:51:03;9.07;;;2.08;;
6757;SDS011;3416;53.074;8.822;2023-05-02T17:53:31;3.22;;;1.77;;
6757;SDS011;3416;53.074;8.822;2023-05-02T17:56:00;6.20;;;2.97;;
6757;SDS011;3416;53.074;8.822;2023-05-02T17:58:27;6.53;;;1.98;;
6757;SDS011;3416;53.074;8.822;2023-05-02T18:00:55;5.28;;;1.95;;
6757;SDS011;3416;53.074;8.822;2023-05-02T18:03:22;3.17;;;1.75;;
6757;SDS011;3416;53.074;8.822;2023-05-02T18:05:51;3.35;;;2.65;;
6757;SDS011;3416;53.074;8.822;2023-05-02T18:08:20;3.00;;;2.28;;
6757;SDS011;3416;53.074;8.822;2023-05-02T18:10:46;5.07;;;2.97;;
6757;SDS011;3416;53.074;8.822;2023-05-02T18:13:13;4.53;;;1.85;;
6757;SDS011;3416;53.074;8.822;2023-05-02T18:15:41;10.30;;;2.13;;
6757;SDS011;3416;53.074;8.822;2023-05-02T18:18:08;7.18;;;2.17;;
6757;SDS011;3416;53.074;8.822;2023-05-02T18:20:39;5.82;;;2.00;;
6757;SDS011;3416;53.074;8.822;2023-05-02T18:23:08;4.20;;;2.15;;
6757;SDS011;3416;53.074;8.822;2023-05-02T18:25:37;4.22;;;1.95;;
6757;SDS011;3416;53.074;8.822;2023-05-02T18:28:04;5.40;;;2.00;;
6757;SDS011;3416;53.074;8.822;2023-05-02T18:30:35;5.40;;;2.30;;
6757;SDS011;3416;53.074;8.822;2023-05-02T18:33:02;4.90;;;1.90;;
6757;SDS011;3416;53.074;8.822;2023-05-02T18:35:30;5.65;;;2.67;;
6757;SDS011;3416;53.074;8.822;2023-05-02T18:37:57;8.50;;;2.13;;
6757;SDS011;3416;53.074;8.822;2023-05-02T18:40:35;8.63;;;2.40;;
6757;SDS011;3416;53.074;8.822;2023-05-02T18:43:07;7.18;;;2.25;;
6757;SDS011;3416;53.074;8.822;2023-05-02T18:45:39;12.15;;;2.95;;
6757;SDS011;3416;53.074;8.822;2023-05-02T18:48:07;4.70;;;2.50;;
6757;SDS011;3416;53.074;8.822;2023-05-02T18:50:34;2.60;;;2.10;;
6757;SDS011;3416;53.074;8.822;2023-05-02T18:53:01;3.35;;;1.80;;
6757;SDS011;3416;53.074;8.822;2023-05-02T18:55:30;5.55;;;2.40;;
6757;SDS011;3416;53.074;8.822;2023-05-02T18:57:58;5.03;;;2.20;;
6757;SDS011;3416;53.074;8.822;2023-05-02T19:03:09;5.10;;;1.67;;
6757;SDS011;3416;53.074;8.822;2023-05-02T19:05:49;6.15;;;2.10;;
6757;SDS011;3416;53.074;8.822;2023-05-02T19:08:16;4.28;;;2.00;;
6757;SDS011;3416;53.074;8.822;2023-05-02T19:10:43;5.68;;;2.55;;
6757;SDS011;3416;53.074;8.822;2023-05-02T19:13:13;8.02;;;2.30;;
6757;SDS011;3416;53.074;8.822;2023-05-02T19:15:42;8.82;;;2.03;;
6757;SDS011;3416;53.074;8.822;2023-05-02T19:18:09;5.90;;;2.35;;
6757;SDS011;3416;53.074;8.822;2023-05-02T19:20:36;6.47;;;2.58;;
6757;SDS011;3416;53.074;8.822;2023-05-02T19:23:03;4.57;;;1.95;;
6757;SDS011;3416;53.074;8.822;2023-05-02T19:25:30;6.75;;;1.65;;
6757;SDS011;3416;53.074;8.822;2023-05-02T19:27:57;4.68;;;2.05;;
6757;SDS011;3416;53.074;8.822;2023-05-02T19:30:25;2.72;;;1.83;;
6757;SDS011;3416;53.074;8.822;2023-05-02T19:32:52;4.00;;;2.03;;
6757;SDS011;3416;53.074;8.822;2023-05-02T19:35:19;3.42;;;2.20;;
6757;SDS011;3416;53.074;8.822;2023-05-02T19:37:47;11.27;;;3.53;;
6757;SDS011;3416;53.074;8.822;2023-05-02T19:40:14;3.10;;;1.70;;
6757;SDS011;3416;53.074;8.822;2023-05-02T19:42:41;4.32;;;2.38;;
6757;SDS011;3416;53.074;8.822;2023-05-02T19:45:09;4.35;;;2.35;;
6757;SDS011;3416;53.074;8.822;2023-05-02T19:47:39;6.78;;;1.90;;
6757;SDS011;3416;53.074;8.822;2023-05-02T19:50:08;5.95;;;2.88;;
6757;SDS011;3416;53.074;8.822;2023-05-02T19:52:35;5.57;;;2.35;;
6757;SDS011;3416;53.074;8.822;2023-05-02T19:55:05;2.90;;;1.95;;
6757;SDS011;3416;53.074;8.822;2023-05-02T19:57:33;6.68;;;2.13;;
6757;SDS011;3416;53.074;8.822;2023-05-02T19:59:59;2.38;;;1.95;;
6757;SDS011;3416;53.074;8.822;2023-05-02T20:02:26;4.30;;;2.10;;
6757;SDS011;3416;53.074;8.822;2023-05-02T20:04:54;4.90;;;2.80;;
6757;SDS011;3416;53.074;8.822;2023-05-02T20:07:21;5.93;;;2.40;;
6757;SDS011;3416;53.074;8.822;2023-05-02T20:09:48;5.93;;;3.47;;
6757;SDS011;3416;53.074;8.822;2023-05-02T20:12:16;4.25;;;2.38;;
6757;SDS011;3416;53.074;8.822;2023-05-02T20:14:43;4.05;;;2.13;;
6757;SDS011;3416;53.074;8.822;2023-05-02T20:17:12;5.95;;;2.63;;
6757;SDS011;3416;53.074;8.822;2023-05-02T20:19:39;3.63;;;2.35;;
6757;SDS011;3416;53.074;8.822;2023-05-02T20:22:08;3.20;;;2.90;;
6757;SDS011;3416;53.074;8.822;2023-05-02T20:24:35;10.02;;;2.75;;
6757;SDS011;3416;53.074;8.822;2023-05-02T20:27:02;6.22;;;2.97;;
6757;SDS011;3416;53.074;8.822;2023-05-02T20:29:30;7.35;;;2.20;;
6757;SDS011;3416;53.074;8.822;2023-05-02T20:31:57;4.95;;;3.05;;
6757;SDS011;3416;53.074;8.822;2023-05-02T20:34:24;6.18;;;2.30;;
6757;SDS011;3416;53.074;8.822;2023-05-02T20:36:50;6.00;;;2.92;;
6757;SDS011;3416;53.074;8.822;2023-05-02T20:39:20;3.65;;;2.30;;
6757;SDS011;3416;53.074;8.822;2023-05-02T20:41:46;4.75;;;2.05;;
6757;SDS011;3416;53.074;8.822;2023-05-02T20:44:14;6.40;;;2.38;;
6757;SDS011;3416;53.074;8.822;2023-05-02T20:46:42;6.55;;;2.90;;
6757;SDS011;3416;53.074;8.822;2023-05-02T20:49:09;2.88;;;1.85;;
6757;SDS011;3416;53.074;8.822;2023-05-02T20:51:36;6.88;;;2.95;;
6757;SDS011;3416;53.074;8.822;2023-05-02T20:54:03;4.05;;;2.15;;
6757;SDS011;3416;53.074;8.822;2023-05-02T20:56:32;6.07;;;2.88;;
6757;SDS011;3416;53.074;8.822;2023-05-02T20:58:59;5.43;;;3.13;;
6757;SDS011;3416;53.074;8.822;2023-05-02T21:01:27;14.70;;;2.70;;
6757;SDS011;3416;53.074;8.822;2023-05-02T21:03:54;4.40;;;3.20;;
6757;SDS011;3416;53.074;8.822;2023-05-02T21:06:21;4.55;;;2.80;;
6757;SDS011;3416;53.074;8.822;2023-05-02T21:08:48;5.95;;;3.55;;
6757;SDS011;3416;53.074;8.822;2023-05-02T21:11:16;3.75;;;2.88;;
6757;SDS011;3416;53.074;8.822;2023-05-02T21:13:44;4.18;;;2.30;;
6757;SDS011;3416;53.074;8.822;2023-05-02T21:16:12;7.43;;;3.00;;
6757;SDS011;3416;53.074;8.822;2023-05-02T21:18:39;5.32;;;2.50;;
6757;SDS011;3416;53.074;8.822;2023-05-02T21:21:07;7.20;;;3.10;;
6757;SDS011;3416;53.074;8.822;2023-05-02T21:23:33;4.85;;;2.47;;
6757;SDS011;3416;53.074;8.822;2023-05-02T21:26:01;2.95;;;2.10;;
6757;SDS011;3416;53.074;8.822;2023-05-02T21:28:27;4.50;;;2.97;;
6757;SDS011;3416;53.074;8.822;2023-05-02T21:30:56;4.93;;;3.00;;
6757;SDS011;3416;53.074;8.822;2023-05-02T21:33:23;5.43;;;2.50;;
6757;SDS011;3416;53.074;8.822;2023-05-02T21:35:53;4.03;;;2.47;;
6757;SDS011;3416;53.074;8.822;2023-05-02T21:38:21;5.60;;;2.35;;
6757;SDS011;3416;53.074;8.822;2023-05-02T21:40:48;3.35;;;3.00;;
6757;SDS011;3416;53.074;8.822;2023-05-02T21:43:15;5.53;;;2.75;;
6757;SDS011;3416;53.074;8.822;2023-05-02T21:45:42;8.23;;;2.42;;
6757;SDS011;3416;53.074;8.822;2023-05-02T21:48:12;5.80;;;2.58;;
6757;SDS011;3416;53.074;8.822;2023-05-02T21:50:39;8.02;;;2.63;;
6757;SDS011;3416;53.074;8.822;2023-05-02T21:53:06;7.65;;;2.78;;
6757;SDS011;3416;53.074;8.822;2023-05-02T21:55:34;6.57;;;2.70;;
6757;SDS011;3416;53.074;8.822;2023-05-02T21:58:02;7.75;;;3.15;;
6757;SDS011;3416;53.074;8.822;2023-05-02T22:00:29;5.03;;;3.03;;
6757;SDS011;3416;53.074;8.822;2023-05-02T22:02:57;6.53;;;3.13;;
6757;SDS011;3416;53.074;8.822;2023-05-02T22:05:30;3.90;;;2.90;;
6757;SDS011;3416;53.074;8.822;2023-05-02T22:07:58;6.47;;;3.28;;
6757;SDS011;3416;53.074;8.822;2023-05-02T22:10:26;8.32;;;3.20;;
6757;SDS011;3416;53.074;8.822;2023-05-02T22:12:54;5.43;;;3.58;;
6757;SDS011;3416;53.074;8.822;2023-05-02T22:15:21;7.82;;;3.75;;
6757;SDS011;3416;53.074;8.822;2023-05-02T22:17:48;4.07;;;3.40;;
6757;SDS011;3416;53.074;8.822;2023-05-02T22:20:16;6.50;;;3.08;;
6757;SDS011;3416;53.074;8.822;2023-05-02T22:22:44;6.25;;;3.38;;
6757;SDS011;3416;53.074;8.822;2023-05-02T22:25:14;4.93;;;3.63;;
6757;SDS011;3416;53.074;8.822;2023-05-02T22:27:41;6.70;;;3.40;;
6757;SDS011;3416;53.074;8.822;2023-05-02T22:30:13;5.50;;;3.70;;
6757;SDS011;3416;53.074;8.822;2023-05-02T22:32:40;6.85;;;3.50;;
6757;SDS011;3416;53.074;8.822;2023-05-02T22:35:08;5.43;;;3.95;;
6757;SDS011;3416;53.074;8.822;2023-05-02T22:37:35;7.68;;;3.70;;
6757;SDS011;3416;53.074;8.822;2023-05-02T22:40:04;9.23;;;4.15;;
6757;SDS011;3416;53.074;8.822;2023-05-02T22:42:34;12.50;;;4.45;;
6757;SDS011;3416;53.074;8.822;2023-05-02T22:45:01;12.55;;;4.68;;
6757;SDS011;3416;53.074;8.822;2023-05-02T22:47:28;8.93;;;3.70;;
6757;SDS011;3416;53.074;8.822;2023-05-02T22:49:55;10.93;;;5.25;;
6757;SDS011;3416;53.074;8.822;2023-05-02T22:52:23;10.10;;;4.85;;
6757;SDS011;3416;53.074;8.822;2023-05-02T22:54:52;9.88;;;4.95;;
6757;SDS011;3416;53.074;8.822;2023-05-02T22:57:20;11.50;;;4.95;;
6757;SDS011;3416;53.074;8.822;2023-05-02T22:59:47;6.03;;;3.53;;
6757;SDS011;3416;53.074;8.822;2023-05-02T23:02:15;5.82;;;4.75;;
6757;SDS011;3416;53.074;8.822;2023-05-02T23:04:41;10.13;;;4.85;;
6757;SDS011;3416;53.074;8.822;2023-05-02T23:07:08;13.02;;;4.45;;
6757;SDS011;3416;53.074;8.822;2023-05-02T23:09:35;7.82;;;3.97;;
6757;SDS011;3416;53.074;8.822;2023-05-02T23:12:02;7.50;;;4.50;;
6757;SDS011;3416;53.074;8.822;2023-05-02T23:14:31;10.20;;;4.38;;
6757;SDS011;3416;53.074;8.822;2023-05-02T23:16:59;6.57;;;4.18;;
6757;SDS011;3416;53.074;8.822;2023-05-02T23:19:27;9.18;;;5.45;;
6757;SDS011;3416;53.074;8.822;2023-05-02T23:21:54;12.43;;;3.92;;
6757;SDS011;3416;53.074;8.822;2023-05-02T23:24:21;4.30;;;3.38;;
6757;SDS011;3416;53.074;8.822;2023-05-02T23:26:48;6.85;;;3.63;;
6757;SDS011;3416;53.074;8.822;2023-05-02T23:29:15;10.50;;;4.88;;
6757;SDS011;3416;53.074;8.822;2023-05-02T23:31:43;11.90;;;4.05;;
6757;SDS011;3416;53.074;8.822;2023-05-02T23:34:10;7.90;;;4.70;;
6757;SDS011;3416;53.074;8.822;2023-05-02T23:36:37;6.75;;;3.55;;
6757;SDS011;3416;53.074;8.822;2023-05-02T23:39:04;9.43;;;5.55;;
6757;SDS011;3416;53.074;8.822;2023-05-02T23:41:31;7.63;;;3.50;;
6757;SDS011;3416;53.074;8.822;2023-05-02T23:43:59;11.45;;;4.05;;
6757;SDS011;3416;53.074;8.822;2023-05-02T23:46:26;6.03;;;3.92;;
6757;SDS011;3416;53.074;8.822;2023-05-02T23:48:54;7.65;;;4.47;;
6757;SDS011;3416;53.074;8.822;2023-05-02T23:51:21;9.52;;;3.78;;
6757;SDS011;3416;53.074;8.822;2023-05-02T23:53:48;14.23;;;5.68;;
6757;SDS011;3416;53.074;8.822;2023-05-02T23:56:15;9.48;;;3.72;;
6757;SDS011;3416;53.074;8.822;2023-05-02T23:58:42;7.53;;;3.17;;
